Time;durP1;ratioP1;P1;durP2;ratioP2;P2;SDS_P1;SDS_P2;PMS_P1;PMS_P2;Temp;Humidity;BMP_temperature;BMP_pressure;BME280_temperature;BME280_humidity;BME280_pressure;Samples;Min_cycle;Max_cycle;Signal;HPM_P1;HPM_P2
2022/01/11 00:00:55;;;;;;;18.58;13.10;;;2.10;99.90;;;;;;5115931;27;20508;-70
2022/01/11 00:03:21;;;;;;;19.73;13.77;;;2.00;99.90;;;;;;5098900;28;20027;-70
2022/01/11 00:05:58;;;;;;;19.27;13.60;;;1.80;99.90;;;;;;5116080;27;20390;-70
2022/01/11 00:08:31;;;;;;;17.85;12.48;;;1.70;99.90;;;;;;5116167;27;20051;-70
2022/01/11 00:11:04;;;;;;;19.13;13.30;;;1.80;99.90;;;;;;5106890;28;20035;-70
2022/01/11 00:13:38;;;;;;;18.85;13.50;;;1.70;99.90;;;;;;5128088;27;20039;-71
2022/01/11 00:16:05;;;;;;;18.90;14.15;;;1.70;99.90;;;;;;5132954;27;20445;-70
2022/01/11 00:18:31;;;;;;;31.27;13.98;;;1.70;99.90;;;;;;5115767;28;20122;-70
2022/01/11 00:20:56;;;;;;;19.48;13.48;;;1.70;99.90;;;;;;5132901;28;20521;-70
2022/01/11 00:25:50;;;;;;;18.33;13.27;;;1.50;99.90;;;;;;5132795;28;20035;-70
2022/01/11 00:28:17;;;;;;;18.83;13.00;;;1.50;99.90;;;;;;5115606;28;20122;-70
2022/01/11 00:30:45;;;;;;;18.20;12.82;;;1.50;99.90;;;;;;5133168;28;20047;-70
2022/01/11 00:33:31;;;;;;;17.52;12.63;;;1.50;99.90;;;;;;5133776;27;20039;-70
2022/01/11 00:35:58;;;;;;;19.23;13.27;;;1.40;99.90;;;;;;5119671;27;20058;-70
2022/01/11 00:38:27;;;;;;;17.40;12.88;;;1.30;99.90;;;;;;5119787;27;20096;-70
2022/01/11 00:40:57;;;;;;;18.33;11.80;;;1.40;99.90;;;;;;5122599;27;20027;-70
2022/01/11 00:43:24;;;;;;;19.20;13.63;;;1.40;99.90;;;;;;5119780;27;20031;-70
2022/01/11 00:45:51;;;;;;;18.30;12.57;;;1.40;99.90;;;;;;5135446;27;20031;-70
2022/01/11 00:48:18;;;;;;;18.58;12.80;;;1.40;99.90;;;;;;5082132;28;20039;-70
2022/01/11 00:50:44;;;;;;;16.25;12.32;;;1.50;99.90;;;;;;5099049;28;20506;-70
2022/01/11 00:53:10;;;;;;;16.80;11.63;;;1.60;99.90;;;;;;5082112;28;20070;-70
2022/01/11 00:55:38;;;;;;;16.73;11.45;;;1.70;99.90;;;;;;5082061;28;20043;-70
2022/01/11 00:58:04;;;;;;;18.00;12.13;;;1.80;99.90;;;;;;5098912;28;20035;-70
2022/01/11 01:00:37;;;;;;;17.80;11.38;;;1.80;99.90;;;;;;5082041;28;20040;-70
2022/01/11 01:03:03;;;;;;;20.23;12.35;;;1.80;99.90;;;;;;5114960;27;20380;-70
2022/01/11 01:05:28;;;;;;;19.23;12.88;;;1.70;99.90;;;;;;5119211;27;20042;-70
2022/01/11 01:07:54;;;;;;;19.38;12.50;;;1.70;99.90;;;;;;5115462;27;20040;-70
2022/01/11 01:10:29;;;;;;;19.40;12.70;;;1.70;99.90;;;;;;5119243;27;20108;-70
2022/01/11 01:12:57;;;;;;;20.15;13.32;;;1.60;99.90;;;;;;5136610;27;20086;-70
2022/01/11 01:15:23;;;;;;;21.13;13.35;;;1.50;99.90;;;;;;5136557;27;20031;-70
2022/01/11 01:17:50;;;;;;;26.58;12.57;;;1.40;99.90;;;;;;5118863;27;20035;-70
2022/01/11 01:20:15;;;;;;;24.52;13.80;;;1.50;99.90;;;;;;5119249;27;20097;-70
2022/01/11 01:22:41;;;;;;;19.55;12.75;;;1.40;99.90;;;;;;5119274;27;20031;-70
2022/01/11 01:25:07;;;;;;;19.23;12.80;;;1.50;99.90;;;;;;5135996;27;20049;-70
2022/01/11 01:27:34;;;;;;;22.25;14.35;;;1.60;99.90;;;;;;5118951;27;20070;-70
2022/01/11 01:29:59;;;;;;;21.80;14.13;;;1.60;99.90;;;;;;5118782;27;20091;-70
2022/01/11 01:32:25;;;;;;;21.02;14.30;;;1.60;99.90;;;;;;5118807;27;20039;-70
2022/01/11 01:34:52;;;;;;;21.67;14.50;;;1.60;99.90;;;;;;5102613;27;20039;-70
2022/01/11 01:37:17;;;;;;;23.63;15.02;;;1.50;99.90;;;;;;5101503;27;20399;-70
2022/01/11 01:39:43;;;;;;;23.38;14.52;;;1.60;99.90;;;;;;5126506;27;20043;-70
2022/01/11 01:42:11;;;;;;;25.20;16.52;;;1.40;99.90;;;;;;5118562;27;20444;-70
2022/01/11 01:44:38;;;;;;;20.90;14.25;;;1.40;99.90;;;;;;5136088;27;20144;-70
2022/01/11 01:47:04;;;;;;;21.92;14.75;;;1.40;99.90;;;;;;5135620;27;20046;-70
2022/01/11 01:49:32;;;;;;;24.33;15.65;;;1.50;99.90;;;;;;5135507;27;20445;-70
2022/01/11 01:51:57;;;;;;;21.52;12.65;;;1.50;99.90;;;;;;5118370;27;20586;-70
2022/01/11 01:54:24;;;;;;;23.05;14.18;;;1.60;99.90;;;;;;5118333;27;20130;-70
2022/01/11 01:57:00;;;;;;;23.65;14.43;;;1.60;99.90;;;;;;5118313;27;20039;-70
2022/01/11 01:59:25;;;;;;;21.60;14.43;;;1.60;99.90;;;;;;5115403;27;20031;-70
2022/01/11 02:01:51;;;;;;;23.13;14.88;;;1.40;99.90;;;;;;5133039;27;20042;-70
2022/01/11 02:04:18;;;;;;;28.83;16.52;;;1.30;99.90;;;;;;5135551;27;20395;-70
2022/01/11 02:06:46;;;;;;;29.17;16.85;;;1.20;99.90;;;;;;5135534;27;20372;-70
2022/01/11 02:09:15;;;;;;;27.88;16.15;;;1.20;99.90;;;;;;5135188;27;20047;-70
2022/01/11 02:11:41;;;;;;;24.75;15.65;;;1.20;99.90;;;;;;5135446;27;20088;-70
2022/01/11 02:14:07;;;;;;;24.65;16.02;;;1.40;99.90;;;;;;5135095;27;20050;-71
2022/01/11 02:16:32;;;;;;;24.90;14.82;;;1.30;99.90;;;;;;5117856;27;20118;-70
2022/01/11 02:18:58;;;;;;;23.67;15.27;;;1.40;99.90;;;;;;5117862;27;20061;-70
2022/01/11 02:21:24;;;;;;;27.17;14.52;;;1.40;99.90;;;;;;5117831;27;20124;-70
2022/01/11 02:23:50;;;;;;;22.98;14.77;;;1.60;99.90;;;;;;5135059;27;20073;-70
2022/01/11 02:26:16;;;;;;;22.10;14.18;;;1.60;99.90;;;;;;5134964;27;20035;-70
2022/01/11 02:28:42;;;;;;;23.85;13.85;;;1.70;99.90;;;;;;5134762;27;20122;-70
2022/01/11 02:31:12;;;;;;;25.83;14.35;;;1.60;99.90;;;;;;5112372;27;20061;-70
2022/01/11 02:33:44;;;;;;;22.52;13.85;;;1.70;99.90;;;;;;5128882;27;20034;-70
2022/01/11 02:36:18;;;;;;;22.20;11.02;;;1.60;99.90;;;;;;5100291;27;20055;-70
2022/01/11 02:38:48;;;;;;;22.67;12.90;;;1.70;99.90;;;;;;5100456;27;20035;-70
2022/01/11 02:41:14;;;;;;;20.42;12.48;;;1.50;99.90;;;;;;5100462;27;20035;-70
2022/01/11 02:43:41;;;;;;;29.63;14.15;;;1.60;99.90;;;;;;5100389;27;20088;-70
2022/01/11 02:46:07;;;;;;;26.08;15.70;;;1.50;99.90;;;;;;5100360;27;20039;-70
2022/01/11 02:48:32;;;;;;;22.90;13.63;;;1.60;99.90;;;;;;5100332;27;20388;-70
2022/01/11 02:50:58;;;;;;;24.83;13.82;;;1.60;99.90;;;;;;5100448;27;20070;-70
2022/01/11 02:53:24;;;;;;;26.33;14.52;;;1.60;99.90;;;;;;5100336;27;20095;-70
2022/01/11 02:55:50;;;;;;;25.42;14.65;;;1.60;99.90;;;;;;5114620;27;20499;-70
2022/01/11 02:58:15;;;;;;;26.67;14.48;;;1.50;99.90;;;;;;5101179;27;20047;-70
2022/01/11 03:00:41;;;;;;;25.52;14.32;;;1.50;99.90;;;;;;5117003;27;20043;-70
2022/01/11 03:03:18;;;;;;;26.15;15.05;;;1.50;99.90;;;;;;5122497;27;20039;-70
2022/01/11 03:05:48;;;;;;;25.48;14.63;;;1.60;99.90;;;;;;5099870;27;20031;-70
2022/01/11 03:08:15;;;;;;;25.38;14.63;;;1.60;99.90;;;;;;5116484;27;20035;-70
2022/01/11 03:10:41;;;;;;;23.92;11.57;;;1.50;99.90;;;;;;5113447;27;20035;-70
2022/01/11 03:13:09;;;;;;;27.90;15.07;;;1.60;99.90;;;;;;5126681;27;20479;-70
2022/01/11 03:15:37;;;;;;;27.65;15.00;;;1.60;99.90;;;;;;5123253;27;20397;-70
2022/01/11 03:18:04;;;;;;;28.27;14.38;;;1.60;99.90;;;;;;5129682;27;20069;-70
2022/01/11 03:20:30;;;;;;;27.80;15.85;;;1.50;99.90;;;;;;5125160;27;20542;-70
2022/01/11 03:22:56;;;;;;;28.55;15.05;;;1.50;99.90;;;;;;5133983;27;20050;-70
2022/01/11 03:25:23;;;;;;;27.83;15.15;;;1.60;99.90;;;;;;5115512;27;20043;-71
2022/01/11 03:27:49;;;;;;;30.85;16.10;;;1.60;99.90;;;;;;5117097;27;20441;-70
2022/01/11 03:30:15;;;;;;;27.80;13.65;;;1.60;99.90;;;;;;5133586;27;20039;-70
2022/01/11 03:32:41;;;;;;;26.30;15.27;;;1.60;99.90;;;;;;5111507;27;20078;-70
2022/01/11 03:35:08;;;;;;;31.23;16.42;;;1.60;99.90;;;;;;5116689;27;20039;-70
2022/01/11 03:37:34;;;;;;;29.83;15.90;;;1.50;99.90;;;;;;5114770;27;20139;-70
2022/01/11 03:39:59;;;;;;;29.88;17.10;;;1.50;99.90;;;;;;5133648;27;20122;-70
2022/01/11 03:42:25;;;;;;;31.35;17.77;;;1.50;99.90;;;;;;5112928;27;20049;-71
2022/01/11 03:44:51;;;;;;;29.25;15.43;;;1.50;99.90;;;;;;5133446;27;20487;-70
2022/01/11 03:47:18;;;;;;;29.13;13.80;;;1.50;99.90;;;;;;5128939;27;20043;-70
2022/01/11 03:49:43;;;;;;;26.60;14.65;;;1.70;99.90;;;;;;5114960;27;20035;-70
2022/01/11 03:52:09;;;;;;;26.55;14.63;;;1.60;99.90;;;;;;5114123;27;20096;-70
2022/01/11 03:57:19;;;;;;;30.25;16.33;;;1.60;99.90;;;;;;5131772;27;20054;-70
2022/01/11 03:59:44;;;;;;;25.20;15.07;;;1.50;99.90;;;;;;5133094;27;20048;-70
2022/01/11 04:02:10;;;;;;;25.83;13.48;;;1.50;99.90;;;;;;5094902;28;20040;-70
2022/01/11 04:04:36;;;;;;;25.15;12.25;;;1.50;99.90;;;;;;5095522;28;20039;-70
2022/01/11 04:07:01;;;;;;;25.05;14.48;;;1.50;99.90;;;;;;5125748;27;20451;-71
2022/01/11 04:09:27;;;;;;;28.55;13.07;;;1.50;99.90;;;;;;5133337;27;20035;-71
2022/01/11 04:11:53;;;;;;;25.08;14.15;;;1.60;99.90;;;;;;5095244;28;20089;-70
2022/01/11 04:14:19;;;;;;;25.40;15.18;;;1.60;99.90;;;;;;5095552;28;20518;-71
2022/01/11 04:16:46;;;;;;;24.95;14.40;;;1.60;99.90;;;;;;5098256;28;20396;-70
2022/01/11 04:19:11;;;;;;;26.73;15.40;;;1.50;99.90;;;;;;5133246;28;20114;-71
2022/01/11 04:21:37;;;;;;;27.38;14.68;;;1.50;99.90;;;;;;5129706;28;20168;-71
2022/01/11 04:24:03;;;;;;;23.88;13.70;;;1.50;99.90;;;;;;5132955;28;20035;-70
2022/01/11 04:26:29;;;;;;;26.20;12.88;;;1.50;99.90;;;;;;5131770;28;20543;-70
2022/01/11 04:28:54;;;;;;;27.90;15.98;;;1.50;99.90;;;;;;5130290;28;20134;-71
2022/01/11 04:31:20;;;;;;;27.40;15.60;;;1.50;99.90;;;;;;5127565;28;20068;-71
2022/01/11 04:33:45;;;;;;;28.08;15.43;;;1.30;99.90;;;;;;5115090;28;20492;-71
2022/01/11 04:36:12;;;;;;;29.23;14.70;;;1.40;99.90;;;;;;5119731;28;20492;-70
2022/01/11 04:38:39;;;;;;;27.42;14.93;;;1.40;99.90;;;;;;5117522;28;20063;-70
2022/01/11 04:41:05;;;;;;;26.30;14.25;;;1.50;99.90;;;;;;5114773;28;20075;-71
2022/01/11 04:43:30;;;;;;;33.53;15.85;;;1.60;99.90;;;;;;5115517;28;20085;-71
2022/01/11 04:45:57;;;;;;;36.95;16.92;;;1.50;99.90;;;;;;5105680;28;20027;-71
2022/01/11 04:48:23;;;;;;;33.22;16.83;;;1.50;99.90;;;;;;5095122;28;20035;-71
2022/01/11 04:50:50;;;;;;;33.13;16.75;;;1.60;99.90;;;;;;5107897;28;20040;-71
2022/01/11 04:53:15;;;;;;;26.67;14.98;;;1.40;99.90;;;;;;5115759;28;20434;-70
2022/01/11 04:55:41;;;;;;;27.25;14.52;;;1.60;99.90;;;;;;5121379;28;20027;-70
2022/01/11 04:58:07;;;;;;;27.88;16.02;;;1.50;99.90;;;;;;5113644;28;20031;-70
2022/01/11 05:00:34;;;;;;;31.10;15.63;;;1.50;99.90;;;;;;5127578;28;20046;-70
2022/01/11 05:03:00;;;;;;;31.73;16.90;;;1.50;99.90;;;;;;5115360;28;20064;-71
2022/01/11 05:05:29;;;;;;;29.80;16.02;;;1.50;99.90;;;;;;5131202;28;20514;-70
2022/01/11 05:07:55;;;;;;;31.77;16.20;;;1.60;99.90;;;;;;5115408;28;20039;-71
2022/01/11 05:10:21;;;;;;;29.80;15.57;;;1.50;99.90;;;;;;5129868;28;20039;-71
2022/01/11 05:12:47;;;;;;;31.23;17.63;;;1.40;99.90;;;;;;5131615;28;20156;-71
2022/01/11 05:15:14;;;;;;;27.98;15.23;;;1.40;99.90;;;;;;5131646;28;20096;-71
2022/01/11 05:17:40;;;;;;;30.67;16.23;;;1.40;99.90;;;;;;5129646;27;20039;-70
2022/01/11 05:20:07;;;;;;;30.85;15.27;;;1.60;99.90;;;;;;5118988;27;20039;-70
2022/01/11 05:22:34;;;;;;;33.42;15.70;;;1.50;99.90;;;;;;5115788;27;20031;-70
2022/01/11 05:25:00;;;;;;;25.58;13.50;;;1.60;99.90;;;;;;5118968;27;20035;-70
2022/01/11 05:27:27;;;;;;;26.70;14.35;;;1.60;99.90;;;;;;5115829;27;20042;-70
2022/01/11 05:29:54;;;;;;;28.60;15.63;;;1.60;99.90;;;;;;5113948;27;20487;-70
2022/01/11 05:32:20;;;;;;;28.77;14.85;;;1.50;99.90;;;;;;5118766;27;20043;-70
2022/01/11 05:34:46;;;;;;;28.83;14.63;;;1.60;99.90;;;;;;5131279;27;20086;-70
2022/01/11 05:37:12;;;;;;;31.92;18.10;;;1.60;99.90;;;;;;5135784;27;20094;-70
2022/01/11 05:39:38;;;;;;;31.42;16.27;;;1.60;99.90;;;;;;5117738;27;20049;-70
2022/01/11 05:42:09;;;;;;;24.92;13.55;;;1.50;99.90;;;;;;5135574;27;20035;-70
2022/01/11 05:44:36;;;;;;;29.17;15.18;;;1.60;99.90;;;;;;5134117;27;20035;-70
2022/01/11 05:47:03;;;;;;;34.00;17.33;;;1.50;99.90;;;;;;5113370;27;20080;-70
2022/01/11 05:49:29;;;;;;;31.13;16.88;;;1.40;99.90;;;;;;5135624;27;20547;-70
2022/01/11 05:51:55;;;;;;;30.35;16.50;;;1.30;99.90;;;;;;5130685;27;20051;-70
2022/01/11 05:54:21;;;;;;;29.48;16.33;;;1.30;99.90;;;;;;5134185;27;20095;-70
2022/01/11 05:56:46;;;;;;;30.67;16.65;;;1.20;99.90;;;;;;5135402;27;20045;-70
2022/01/11 05:59:12;;;;;;;31.50;17.00;;;1.40;99.90;;;;;;5116982;27;20031;-70
2022/01/11 06:01:37;;;;;;;33.22;16.88;;;1.50;99.90;;;;;;5131372;27;20052;-70
2022/01/11 06:04:03;;;;;;;32.03;15.63;;;1.60;99.90;;;;;;5133473;27;20039;-70
2022/01/11 06:06:29;;;;;;;30.25;15.40;;;1.70;99.90;;;;;;5118445;27;20502;-70
2022/01/11 06:08:55;;;;;;;28.38;15.70;;;1.60;99.90;;;;;;5133612;27;20043;-70
2022/01/11 06:11:20;;;;;;;34.72;17.23;;;1.50;99.90;;;;;;5118051;27;20550;-70
2022/01/11 06:13:47;;;;;;;32.90;17.00;;;1.30;99.90;;;;;;5124326;27;20049;-70
2022/01/11 06:16:13;;;;;;;36.25;18.35;;;1.30;99.90;;;;;;5127005;27;20140;-70
2022/01/11 06:18:38;;;;;;;30.70;17.25;;;1.30;99.90;;;;;;5118215;27;20035;-70
2022/01/11 06:21:04;;;;;;;34.40;19.25;;;1.30;99.90;;;;;;5127270;27;20046;-70
2022/01/11 06:23:30;;;;;;;34.42;18.80;;;1.30;99.90;;;;;;5117955;27;20035;-70
2022/01/11 06:25:55;;;;;;;42.63;19.35;;;1.30;99.90;;;;;;5133871;27;20063;-70
2022/01/11 06:28:21;;;;;;;36.95;18.85;;;1.30;99.90;;;;;;5116294;27;20035;-70
2022/01/11 06:30:47;;;;;;;33.55;18.85;;;1.30;99.90;;;;;;5129238;27;20535;-70
2022/01/11 06:33:14;;;;;;;34.47;18.17;;;1.30;99.90;;;;;;5134760;27;20078;-70
2022/01/11 06:35:39;;;;;;;35.80;17.13;;;1.40;99.90;;;;;;5133462;27;20056;-70
2022/01/11 06:38:05;;;;;;;30.52;15.43;;;1.40;99.90;;;;;;5134621;27;20047;-70
2022/01/11 06:40:31;;;;;;;36.10;18.33;;;1.70;99.90;;;;;;5115020;27;20054;-70
2022/01/11 06:42:56;;;;;;;31.55;16.58;;;1.70;99.90;;;;;;5134409;27;20032;-70
2022/01/11 06:45:22;;;;;;;31.10;15.32;;;1.70;99.90;;;;;;5116050;27;20122;-70
2022/01/11 06:47:48;;;;;;;32.00;16.40;;;1.70;99.90;;;;;;5127223;27;20092;-70
2022/01/11 06:50:14;;;;;;;36.35;18.80;;;1.70;99.90;;;;;;5117170;27;20031;-70
2022/01/11 06:52:40;;;;;;;39.35;19.05;;;1.70;99.90;;;;;;5121365;27;20035;-70
2022/01/11 06:55:08;;;;;;;33.75;16.83;;;1.60;99.90;;;;;;5134312;27;20079;-70
2022/01/11 06:57:34;;;;;;;38.75;17.95;;;1.50;99.90;;;;;;5132927;27;20031;-70
2022/01/11 06:59:59;;;;;;;21.02;10.93;;;1.60;99.90;;;;;;5117380;27;20060;-70
2022/01/11 07:02:25;;;;;;;37.22;16.83;;;1.70;99.90;;;;;;5132616;27;20039;-70
2022/01/11 07:04:50;;;;;;;31.17;16.33;;;1.80;99.90;;;;;;5116907;27;20035;-70
2022/01/11 07:07:16;;;;;;;37.00;18.27;;;1.70;99.90;;;;;;5129193;27;20045;-70
2022/01/11 07:09:42;;;;;;;38.65;19.40;;;1.70;99.90;;;;;;5116929;27;20119;-70
2022/01/11 07:12:08;;;;;;;40.08;17.42;;;1.50;99.90;;;;;;5115375;27;20051;-70
2022/01/11 07:14:33;;;;;;;38.50;18.77;;;1.50;99.90;;;;;;5133963;27;20071;-70
2022/01/11 07:16:59;;;;;;;41.25;18.75;;;1.50;99.90;;;;;;5130722;27;20067;-70
2022/01/11 07:19:27;;;;;;;39.38;20.17;;;1.60;99.90;;;;;;5103847;27;20031;-70
2022/01/11 07:21:52;;;;;;;39.05;16.50;;;1.60;99.90;;;;;;5113293;27;20027;-70
2022/01/11 07:24:18;;;;;;;38.35;19.02;;;1.50;99.90;;;;;;5091849;27;20515;-70
2022/01/11 07:26:44;;;;;;;29.90;13.73;;;1.60;99.90;;;;;;5107020;27;20070;-70
2022/01/11 07:29:10;;;;;;;36.28;18.65;;;1.80;99.90;;;;;;5114871;27;20088;-70
2022/01/11 07:31:38;;;;;;;43.25;20.65;;;1.70;99.90;;;;;;5113298;27;20148;-70
2022/01/11 07:34:05;;;;;;;41.35;19.85;;;1.40;99.90;;;;;;5115575;27;20046;-70
2022/01/11 07:36:31;;;;;;;39.90;18.88;;;1.40;99.90;;;;;;5094263;28;20396;-70
2022/01/11 07:38:57;;;;;;;38.85;20.08;;;1.40;99.90;;;;;;5112246;28;20036;-70
2022/01/11 07:41:23;;;;;;;40.75;20.13;;;1.30;99.90;;;;;;5094314;28;20040;-70
2022/01/11 07:43:49;;;;;;;40.33;18.60;;;1.30;99.90;;;;;;5112781;28;20065;-70
2022/01/11 07:46:14;;;;;;;41.47;20.90;;;1.30;99.90;;;;;;5110912;28;20043;-70
2022/01/11 07:48:40;;;;;;;38.97;18.85;;;1.30;99.90;;;;;;5090637;28;20023;-70
2022/01/11 07:51:06;;;;;;;39.58;20.80;;;1.40;99.90;;;;;;5094855;28;20547;-70
2022/01/11 07:53:31;;;;;;;41.58;20.48;;;1.40;99.90;;;;;;5095127;28;20031;-70
2022/01/11 07:55:57;;;;;;;37.63;16.60;;;1.40;99.90;;;;;;5090164;28;20063;-70
2022/01/11 07:58:22;;;;;;;39.05;19.20;;;1.40;99.90;;;;;;5112407;28;20035;-70
2022/01/11 08:00:48;;;;;;;41.50;20.90;;;1.50;99.90;;;;;;5110881;28;20054;-70
2022/01/11 08:03:14;;;;;;;39.70;19.95;;;1.40;99.90;;;;;;5112138;28;20035;-70
2022/01/11 08:05:40;;;;;;;37.40;19.25;;;1.40;99.90;;;;;;5094241;28;20032;-70
2022/01/11 08:08:06;;;;;;;38.45;19.63;;;1.40;99.90;;;;;;5112055;28;20499;-70
2022/01/11 08:10:32;;;;;;;39.63;19.63;;;1.50;99.90;;;;;;5089481;28;20046;-70
2022/01/11 08:12:57;;;;;;;34.13;17.58;;;1.50;99.90;;;;;;5112266;28;20084;-70
2022/01/11 08:15:23;;;;;;;38.85;17.30;;;1.60;99.90;;;;;;5093908;28;20396;-70
2022/01/11 08:17:49;;;;;;;35.45;16.77;;;1.70;99.90;;;;;;5093596;28;20483;-70
2022/01/11 08:20:15;;;;;;;35.78;18.73;;;1.70;99.90;;;;;;5111972;28;20054;-70
2022/01/11 08:22:40;;;;;;;35.30;18.50;;;1.70;99.90;;;;;;5100448;28;20034;-70
2022/01/11 08:25:06;;;;;;;34.70;17.30;;;1.50;99.90;;;;;;5095065;28;20031;-70
2022/01/11 08:27:36;;;;;;;35.22;17.73;;;1.60;99.90;;;;;;5095312;28;20039;-70
2022/01/11 08:30:03;;;;;;;35.42;17.52;;;1.60;99.90;;;;;;5095204;28;20487;-70
2022/01/11 08:32:29;;;;;;;34.45;18.60;;;1.50;99.90;;;;;;5109660;28;20088;-70
2022/01/11 08:34:54;;;;;;;32.47;17.33;;;1.60;99.90;;;;;;5095414;28;20039;-70
2022/01/11 08:37:20;;;;;;;34.58;16.23;;;1.60;99.90;;;;;;5094653;28;20050;-70
2022/01/11 08:39:45;;;;;;;29.08;15.60;;;1.60;99.90;;;;;;5111860;28;20054;-70
2022/01/11 08:42:14;;;;;;;33.58;17.90;;;1.50;99.90;;;;;;5095336;28;20036;-70
2022/01/11 08:44:42;;;;;;;30.80;16.05;;;1.60;99.90;;;;;;5111709;28;20044;-70
2022/01/11 08:47:07;;;;;;;30.88;15.90;;;1.60;99.90;;;;;;5112074;28;20054;-70
2022/01/11 08:49:34;;;;;;;35.58;16.77;;;1.60;99.90;;;;;;5112197;28;20480;-70
2022/01/11 08:51:59;;;;;;;29.60;15.73;;;1.60;99.90;;;;;;5094989;28;20054;-70
2022/01/11 08:54:25;;;;;;;30.15;15.20;;;1.60;99.90;;;;;;5113178;28;20039;-70
2022/01/11 08:56:55;;;;;;;29.85;15.65;;;1.60;99.90;;;;;;5116063;28;20038;-70
2022/01/11 08:59:22;;;;;;;28.02;13.85;;;1.60;99.90;;;;;;5114014;28;20039;-70
2022/01/11 09:01:49;;;;;;;30.45;17.20;;;1.60;99.90;;;;;;5115740;28;20042;-70
2022/01/11 09:04:16;;;;;;;27.50;14.35;;;1.70;99.90;;;;;;5115888;28;20031;-70
2022/01/11 09:06:42;;;;;;;30.00;14.50;;;1.70;99.90;;;;;;5115561;28;20047;-70
2022/01/11 09:09:07;;;;;;;28.17;14.02;;;1.70;99.90;;;;;;5098558;28;20039;-70
2022/01/11 09:11:33;;;;;;;24.83;13.70;;;1.70;99.90;;;;;;5116129;28;20044;-70
2022/01/11 09:13:58;;;;;;;29.38;15.15;;;1.70;99.90;;;;;;5098627;28;20039;-70
2022/01/11 09:16:24;;;;;;;28.30;15.18;;;1.70;99.90;;;;;;5115557;28;20050;-70
2022/01/11 09:18:50;;;;;;;23.17;11.45;;;1.70;99.90;;;;;;5098698;28;20492;-70
2022/01/11 09:21:20;;;;;;;23.55;12.68;;;1.80;99.90;;;;;;5093389;28;20463;-70
2022/01/11 09:23:46;;;;;;;22.10;12.70;;;1.80;99.90;;;;;;5086496;28;20057;-70
2022/01/11 09:26:12;;;;;;;20.13;11.40;;;1.60;99.90;;;;;;5095409;28;20062;-73
2022/01/11 09:28:37;;;;;;;21.50;11.90;;;1.70;99.90;;;;;;5095172;28;20480;-74
2022/01/11 09:31:03;;;;;;;24.30;13.23;;;1.70;99.90;;;;;;5107917;28;20032;-71
2022/01/11 09:33:29;;;;;;;23.08;11.85;;;1.80;99.90;;;;;;5115267;28;20043;-73
2022/01/11 09:35:54;;;;;;;21.63;12.27;;;1.90;99.90;;;;;;5104416;27;20047;-74
2022/01/11 09:38:20;;;;;;;23.77;13.35;;;2.00;99.90;;;;;;5118336;27;20122;-71
2022/01/11 09:40:46;;;;;;;23.83;12.82;;;2.00;99.90;;;;;;5103116;27;20047;-71
2022/01/11 09:43:12;;;;;;;24.25;12.98;;;1.90;99.90;;;;;;5101473;27;20031;-71
2022/01/11 09:45:37;;;;;;;21.52;12.13;;;1.90;99.90;;;;;;5118597;27;20039;-71
2022/01/11 09:48:03;;;;;;;22.05;12.45;;;1.90;99.90;;;;;;5101189;27;20122;-71
2022/01/11 09:50:29;;;;;;;21.38;11.65;;;1.80;99.90;;;;;;5118438;27;20039;-71
2022/01/11 09:52:55;;;;;;;19.70;10.93;;;1.90;99.90;;;;;;5101035;27;20133;-71
2022/01/11 09:55:21;;;;;;;21.65;12.20;;;1.80;99.90;;;;;;5117840;27;20039;-71
2022/01/11 09:57:47;;;;;;;17.67;10.52;;;1.80;99.90;;;;;;5101407;27;20062;-71
2022/01/11 10:00:13;;;;;;;19.90;11.27;;;1.80;99.90;;;;;;5102880;27;20035;-71
2022/01/11 10:02:39;;;;;;;21.10;12.30;;;1.80;99.90;;;;;;5118323;27;20074;-70
2022/01/11 10:05:08;;;;;;;21.25;11.55;;;1.70;99.90;;;;;;5117745;27;20077;-71
2022/01/11 10:07:37;;;;;;;20.02;12.00;;;1.80;99.90;;;;;;5100961;27;20035;-71
2022/01/11 10:10:04;;;;;;;18.67;11.15;;;1.70;99.90;;;;;;5118152;27;20074;-71
2022/01/11 10:13:03;;;;;;;19.42;11.63;;;1.60;99.90;;;;;;5117943;27;20039;-71
2022/01/11 10:15:35;;;;;;;19.83;11.60;;;1.60;99.90;;;;;;5098265;27;20039;-71
2022/01/11 10:18:01;;;;;;;21.40;11.55;;;1.60;99.90;;;;;;5117856;27;20071;-71
2022/01/11 10:20:27;;;;;;;21.55;11.48;;;1.60;99.90;;;;;;5114933;27;20039;-71
2022/01/11 10:22:56;;;;;;;19.17;10.85;;;1.70;99.90;;;;;;5080318;28;20035;-71
2022/01/11 10:25:23;;;;;;;19.40;11.15;;;1.80;99.90;;;;;;5080672;28;20373;-71
2022/01/11 10:28:00;;;;;;;19.80;11.25;;;1.90;99.90;;;;;;5096800;28;20036;-71
2022/01/11 10:30:27;;;;;;;18.92;11.27;;;2.00;99.90;;;;;;5119726;27;20047;-71
2022/01/11 10:32:56;;;;;;;19.85;11.80;;;2.00;99.90;;;;;;5127989;27;20035;-71
2022/01/11 10:35:26;;;;;;;19.73;11.68;;;2.00;99.90;;;;;;5134038;27;20049;-71
2022/01/11 10:37:54;;;;;;;18.08;11.13;;;2.00;99.90;;;;;;5088297;27;20088;-71
2022/01/11 10:40:26;;;;;;;18.92;11.45;;;2.10;99.90;;;;;;5116955;27;20122;-71
2022/01/11 10:42:58;;;;;;;21.05;11.55;;;2.10;99.90;;;;;;5097089;28;20132;-71
2022/01/11 10:45:28;;;;;;;20.33;11.27;;;2.10;99.90;;;;;;5096730;28;20036;-71
2022/01/11 10:47:59;;;;;;;20.92;11.70;;;2.30;99.90;;;;;;5099778;27;20143;-71
2022/01/11 10:50:37;;;;;;;20.00;11.88;;;2.20;99.90;;;;;;5113967;27;20035;-71
2022/01/11 10:53:06;;;;;;;20.90;11.52;;;2.20;99.90;;;;;;5113744;28;20049;-71
2022/01/11 10:55:34;;;;;;;18.70;10.77;;;2.20;99.90;;;;;;5113353;28;20043;-71
2022/01/11 10:58:11;;;;;;;20.73;11.57;;;2.20;99.90;;;;;;5116653;27;20035;-71
2022/01/11 11:00:41;;;;;;;20.23;11.85;;;2.20;99.90;;;;;;5125540;27;20035;-71
2022/01/11 11:03:12;;;;;;;19.08;10.98;;;2.20;99.90;;;;;;5116845;27;20035;-71
2022/01/11 11:05:39;;;;;;;19.27;11.45;;;2.30;99.90;;;;;;5116786;27;20040;-71
2022/01/11 11:08:10;;;;;;;19.75;10.75;;;2.30;99.90;;;;;;5114295;27;20053;-71
2022/01/11 11:10:55;;;;;;;19.63;11.45;;;2.40;99.90;;;;;;5116233;27;20070;-71
2022/01/11 11:13:32;;;;;;;19.83;10.70;;;2.40;99.90;;;;;;5115241;27;20521;-71
2022/01/11 11:16:11;;;;;;;20.50;11.18;;;2.40;99.90;;;;;;5106425;27;20032;-71
2022/01/11 11:18:45;;;;;;;20.45;11.60;;;2.50;99.90;;;;;;5116782;27;20055;-71
2022/01/11 11:21:32;;;;;;;21.13;12.30;;;2.50;99.90;;;;;;5112613;27;20068;-71
2022/01/11 11:24:10;;;;;;;21.25;10.73;;;2.50;99.90;;;;;;5097148;27;20070;-71
2022/01/11 11:26:48;;;;;;;18.15;11.18;;;2.60;99.90;;;;;;5098653;27;20039;-71
2022/01/11 11:29:14;;;;;;;17.17;10.50;;;2.70;99.90;;;;;;5116110;27;20035;-71
2022/01/11 11:31:40;;;;;;;20.70;11.68;;;2.70;99.90;;;;;;5116246;27;20369;-71
2022/01/11 11:34:08;;;;;;;18.45;10.02;;;2.70;99.90;;;;;;5114490;27;20041;-71
2022/01/11 11:36:36;;;;;;;20.20;11.32;;;2.70;99.90;;;;;;5097852;27;20541;-71
2022/01/11 11:39:20;;;;;;;17.00;9.30;;;2.70;99.90;;;;;;5115650;27;20035;-71
2022/01/11 11:41:47;;;;;;;19.00;10.75;;;2.90;99.90;;;;;;5095777;28;20074;-71
2022/01/11 11:44:16;;;;;;;17.40;10.10;;;2.90;99.90;;;;;;5115485;27;20043;-71
2022/01/11 11:46:53;;;;;;;20.55;10.50;;;3.00;99.90;;;;;;5111889;28;20045;-71
2022/01/11 11:49:49;;;;;;;20.98;11.55;;;2.90;99.90;;;;;;5098193;27;20078;-71
2022/01/11 11:52:19;;;;;;;17.35;9.75;;;2.90;99.90;;;;;;5098225;27;20046;-71
2022/01/11 11:54:54;;;;;;;18.05;9.98;;;3.00;99.90;;;;;;5115616;27;20127;-71
2022/01/11 11:57:22;;;;;;;16.63;9.40;;;3.20;99.90;;;;;;5104500;28;20039;-71
2022/01/11 11:59:55;;;;;;;19.13;10.68;;;3.30;99.90;;;;;;5107315;27;20103;-71
2022/01/11 12:02:30;;;;;;;19.00;10.43;;;3.40;99.90;;;;;;5113130;27;20076;-71
2022/01/11 12:04:56;;;;;;;22.13;6.53;;;3.40;99.90;;;;;;5113202;27;20046;-71
2022/01/11 12:07:42;;;;;;;18.50;9.48;;;3.50;99.90;;;;;;5096065;28;20035;-71
2022/01/11 12:10:19;;;;;;;18.15;9.60;;;3.70;99.90;;;;;;5094411;28;20054;-71
2022/01/11 12:12:53;;;;;;;17.73;9.05;;;3.70;99.90;;;;;;5093636;27;20122;-71
2022/01/11 12:15:21;;;;;;;18.92;9.43;;;3.80;99.90;;;;;;5103612;27;20039;-71
2022/01/11 12:18:07;;;;;;;16.00;9.45;;;3.70;99.90;;;;;;5099177;28;20107;-71
2022/01/11 12:20:39;;;;;;;16.33;7.18;;;3.90;99.90;;;;;;5080172;28;20043;-71
2022/01/11 12:23:04;;;;;;;17.40;8.38;;;3.90;99.90;;;;;;5078630;28;20089;-71
2022/01/11 12:25:41;;;;;;;12.48;5.78;;;3.90;99.90;;;;;;5111036;28;20035;-71
2022/01/11 12:28:13;;;;;;;16.98;8.48;;;4.00;99.90;;;;;;5116551;27;20038;-71
2022/01/11 12:30:38;;;;;;;15.30;9.52;;;4.00;99.90;;;;;;5120022;27;20457;-71
2022/01/11 12:33:16;;;;;;;16.17;8.65;;;3.90;99.90;;;;;;5102591;27;20141;-71
2022/01/11 12:35:53;;;;;;;17.33;9.68;;;3.90;99.90;;;;;;5119224;27;20055;-71
2022/01/11 12:38:19;;;;;;;16.55;8.25;;;3.90;99.90;;;;;;5102342;27;20083;-71
2022/01/11 12:40:44;;;;;;;15.50;8.70;;;4.00;99.90;;;;;;5119859;27;20147;-71
2022/01/11 12:43:32;;;;;;;16.48;8.98;;;4.10;99.90;;;;;;5118050;27;20034;-71
2022/01/11 12:46:02;;;;;;;15.52;6.40;;;4.10;99.90;;;;;;5100231;27;20068;-71